createdAt,value
2017-11-17T00:00:04.327Z,28.42
2017-11-17T00:02:34.873Z,23.00
2017-11-17T00:05:05.634Z,28.80
2017-11-17T00:07:36.871Z,25.35
2017-11-17T00:10:07.992Z,24.65
2017-11-17T00:12:39.158Z,22.08
2017-11-17T00:15:10.245Z,25.08
2017-11-17T00:17:41.222Z,26.37
2017-11-17T00:20:12.310Z,22.55
2017-11-17T00:22:43.447Z,23.05
2017-11-17T00:25:14.544Z,23.80
2017-11-17T00:27:45.496Z,25.33
2017-11-17T00:30:17.218Z,25.17
2017-11-17T00:32:48.276Z,24.33
2017-11-17T00:35:19.389Z,26.65
2017-11-17T00:37:50.464Z,26.90
2017-11-17T00:40:21.490Z,30.60
2017-11-17T00:42:52.523Z,32.13
2017-11-17T00:45:23.563Z,35.83
2017-11-17T00:47:55.404Z,32.40
2017-11-17T00:50:26.764Z,34.72
2017-11-17T00:52:58.572Z,31.02
2017-11-17T00:55:29.776Z,33.30
2017-11-17T00:58:01.293Z,33.13
2017-11-17T01:00:32.851Z,36.38
2017-11-17T01:03:04.411Z,40.25
2017-11-17T01:05:35.407Z,39.65
2017-11-17T01:08:08.153Z,39.75
2017-11-17T01:10:40.523Z,38.20
2017-11-17T01:13:12.383Z,32.83
2017-11-17T01:15:44.210Z,30.13
2017-11-17T01:18:15.385Z,30.25
2017-11-17T01:20:46.353Z,33.67
2017-11-17T01:23:17.536Z,31.42
2017-11-17T01:25:48.283Z,28.85
2017-11-17T01:28:19.599Z,31.27
2017-11-17T01:30:50.644Z,30.67
2017-11-17T01:33:21.700Z,41.30
2017-11-17T01:35:52.775Z,48.67
2017-11-17T01:40:48.379Z,45.42
2017-11-17T01:43:19.044Z,50.53
2017-11-17T01:45:50.384Z,45.15
2017-11-17T01:48:21.193Z,50.10
2017-11-17T01:50:52.173Z,49.88
2017-11-17T01:53:23.366Z,48.97
2017-11-17T01:55:54.363Z,42.75
2017-11-17T01:58:25.209Z,41.85
2017-11-17T02:00:56.593Z,50.08
2017-11-17T02:03:28.237Z,44.63
2017-11-17T02:05:59.091Z,41.53
2017-11-17T02:08:29.916Z,45.80
2017-11-17T02:11:01.251Z,38.63
2017-11-17T02:13:32.471Z,41.53
2017-11-17T02:16:05.545Z,42.60
2017-11-17T02:18:36.904Z,34.10
2017-11-17T02:21:07.718Z,35.75
2017-11-17T02:23:42.524Z,43.00
2017-11-17T02:26:14.576Z,42.10
2017-11-17T02:28:45.430Z,43.58
2017-11-17T02:31:16.471Z,40.47
2017-11-17T02:33:48.279Z,39.55
2017-11-17T02:36:19.060Z,39.47
2017-11-17T02:38:50.895Z,36.77
2017-11-17T02:41:22.933Z,35.70
2017-11-17T02:43:54.851Z,40.38
2017-11-17T02:46:26.211Z,42.08
2017-11-17T02:48:57.114Z,42.22
2017-11-17T02:51:27.875Z,40.38
2017-11-17T02:53:58.944Z,36.60
2017-11-17T02:56:30.702Z,37.83
2017-11-17T02:59:01.467Z,39.75
2017-11-17T03:01:32.263Z,34.53
2017-11-17T03:04:03.896Z,34.58
2017-11-17T03:06:35.414Z,32.83
2017-11-17T03:09:06.584Z,30.50
2017-11-17T03:11:37.327Z,27.20
2017-11-17T03:14:09.148Z,30.35
2017-11-17T03:16:40.321Z,31.20
2017-11-17T03:19:11.073Z,28.87
2017-11-17T03:21:41.832Z,31.10
2017-11-17T03:24:13.369Z,29.45
2017-11-17T03:26:44.415Z,37.50
2017-11-17T03:29:15.960Z,31.10
2017-11-17T03:31:46.891Z,35.40
2017-11-17T03:34:18.469Z,33.22
2017-11-17T03:36:49.200Z,36.13
2017-11-17T03:39:20.915Z,36.88
2017-11-17T03:41:52.807Z,35.90
2017-11-17T03:44:24.515Z,34.38
2017-11-17T03:46:55.868Z,32.63
2017-11-17T03:49:26.700Z,34.50
2017-11-17T03:51:57.445Z,31.95
2017-11-17T03:54:30.432Z,31.57
2017-11-17T03:57:01.781Z,29.92
2017-11-17T03:59:33.520Z,31.02
2017-11-17T04:02:04.804Z,30.15
2017-11-17T04:04:35.628Z,31.33
2017-11-17T04:07:06.538Z,31.70
2017-11-17T04:09:37.488Z,27.10
2017-11-17T04:12:09.573Z,33.17
2017-11-17T04:14:40.689Z,34.58
2017-11-17T04:17:12.037Z,37.57
2017-11-17T04:19:42.919Z,33.47
2017-11-17T04:22:14.239Z,33.47
2017-11-17T04:24:45.498Z,34.00
2017-11-17T04:27:16.489Z,33.25
2017-11-17T04:29:48.043Z,34.78
2017-11-17T04:32:19.489Z,30.58
2017-11-17T04:34:50.468Z,34.70
2017-11-17T04:39:14.038Z,30.33
2017-11-17T04:41:44.888Z,31.85
2017-11-17T04:44:16.103Z,26.77
2017-11-17T04:46:47.045Z,27.48
2017-11-17T04:49:18.408Z,22.08
2017-11-17T04:51:50.443Z,24.55
2017-11-17T04:54:22.392Z,29.73
2017-11-17T04:56:54.737Z,35.67
2017-11-17T04:59:26.388Z,37.65
2017-11-17T05:01:58.305Z,38.28
2017-11-17T05:04:29.291Z,40.38
2017-11-17T05:07:00.057Z,42.38
2017-11-17T05:09:31.886Z,47.75
2017-11-17T05:12:03.316Z,53.50
2017-11-17T05:14:34.716Z,56.33
2017-11-17T05:17:05.725Z,56.67
2017-11-17T05:19:37.098Z,54.50
2017-11-17T05:22:24.512Z,48.78
2017-11-17T05:24:55.354Z,51.63
2017-11-17T05:27:26.817Z,54.10
2017-11-17T05:29:57.882Z,56.83
2017-11-17T05:32:28.707Z,52.33
2017-11-17T05:35:10.131Z,53.00
2017-11-17T05:37:41.480Z,56.33
2017-11-17T05:41:10.630Z,55.77
2017-11-17T05:43:41.965Z,55.37
2017-11-17T05:46:13.169Z,59.90
2017-11-17T05:48:44.063Z,59.08
2017-11-17T05:51:15.761Z,54.90
2017-11-17T05:53:46.804Z,65.93
2017-11-17T05:56:18.807Z,61.72
2017-11-17T05:58:50.437Z,62.45
2017-11-17T06:01:22.280Z,54.45
2017-11-17T06:03:53.137Z,58.10
2017-11-17T06:06:24.109Z,61.67
2017-11-17T06:08:55.503Z,61.28
2017-11-17T06:11:26.569Z,59.03
2017-11-17T06:13:58.237Z,60.70
2017-11-17T06:16:29.983Z,65.12
2017-11-17T06:19:00.981Z,60.25
2017-11-17T06:21:32.840Z,55.97
2017-11-17T06:24:03.860Z,55.55
2017-11-17T06:26:34.871Z,65.83
2017-11-17T06:29:06.991Z,55.38
2017-11-17T06:31:38.267Z,55.72
2017-11-17T06:34:09.205Z,54.55
2017-11-17T06:36:40.739Z,55.30
2017-11-17T06:39:11.778Z,58.70
2017-11-17T06:41:43.079Z,61.83
2017-11-17T06:44:14.077Z,59.75
2017-11-17T06:46:45.274Z,59.17
2017-11-17T06:49:16.720Z,54.67
2017-11-17T06:51:47.913Z,53.87
2017-11-17T06:54:19.364Z,56.53
2017-11-17T06:56:50.341Z,52.58
2017-11-17T06:59:22.167Z,48.10
2017-11-17T07:01:54.172Z,49.00
2017-11-17T07:04:25.124Z,48.08
2017-11-17T07:06:56.111Z,50.05
2017-11-17T07:09:27.519Z,48.95
2017-11-17T07:11:58.691Z,43.67
2017-11-17T07:14:29.655Z,43.60
2017-11-17T07:17:00.502Z,47.83
2017-11-17T07:19:31.871Z,53.67
2017-11-17T07:22:03.309Z,47.13
2017-11-17T07:24:34.435Z,51.47
2017-11-17T07:27:06.560Z,46.58
2017-11-17T07:29:37.582Z,53.00
2017-11-17T07:32:08.520Z,48.53
2017-11-17T07:34:40.028Z,52.10
2017-11-17T07:37:11.053Z,48.10
2017-11-17T07:40:44.577Z,46.75
2017-11-17T07:43:15.643Z,43.78
2017-11-17T07:45:46.874Z,45.73
2017-11-17T07:48:18.562Z,44.50
2017-11-17T07:50:49.458Z,43.25
2017-11-17T07:53:20.826Z,46.92
2017-11-17T07:55:51.928Z,43.80
2017-11-17T07:58:23.062Z,48.30
2017-11-17T08:00:54.066Z,44.05
2017-11-17T08:03:25.181Z,46.15
2017-11-17T08:05:57.048Z,41.58
2017-11-17T08:08:28.402Z,48.75
2017-11-17T08:11:00.310Z,40.53
2017-11-17T08:13:31.308Z,46.73
2017-11-17T08:16:03.290Z,38.08
2017-11-17T08:18:41.528Z,38.15
2017-11-17T08:21:13.064Z,40.22
2017-11-17T08:23:44.646Z,39.33
2017-11-17T08:26:15.705Z,37.70
2017-11-17T08:28:47.529Z,43.27
2017-11-17T08:31:18.415Z,38.90
2017-11-17T08:33:50.209Z,38.80
2017-11-17T08:36:21.153Z,36.78
2017-11-17T08:38:51.967Z,47.20
2017-11-17T08:41:23.920Z,38.78
2017-11-17T08:43:55.171Z,40.80
2017-11-17T08:46:26.698Z,39.13
2017-11-17T08:48:57.824Z,34.03
2017-11-17T08:51:28.929Z,38.07
2017-11-17T08:54:00.273Z,37.40
2017-11-17T08:56:31.129Z,35.83
2017-11-17T08:59:01.961Z,35.78
2017-11-17T09:01:33.551Z,38.22
2017-11-17T09:04:04.578Z,42.30
2017-11-17T09:06:35.992Z,34.60
2017-11-17T09:09:06.975Z,38.00
2017-11-17T09:11:37.828Z,39.13
2017-11-17T09:14:08.876Z,39.15
2017-11-17T09:16:39.942Z,36.28
2017-11-17T09:19:12.073Z,34.58
2017-11-17T09:21:43.178Z,37.13
2017-11-17T09:24:14.797Z,43.78
2017-11-17T09:26:46.538Z,37.43
2017-11-17T09:29:18.527Z,34.75
2017-11-17T09:31:49.525Z,35.95
2017-11-17T09:34:20.581Z,31.45
2017-11-17T09:36:52.216Z,33.55
2017-11-17T09:39:23.583Z,33.13
2017-11-17T09:41:55.366Z,24.60
2017-11-17T09:44:26.415Z,24.12
2017-11-17T09:46:57.697Z,26.23
2017-11-17T09:49:28.948Z,30.42
2017-11-17T09:51:59.728Z,23.95
2017-11-17T09:54:32.015Z,29.50
2017-11-17T09:57:03.978Z,28.50
2017-11-17T09:59:35.694Z,28.17
2017-11-17T10:02:07.212Z,25.98
2017-11-17T10:04:38.232Z,24.10
2017-11-17T10:07:09.365Z,27.08
2017-11-17T10:09:40.893Z,27.20
2017-11-17T10:12:11.756Z,26.98
2017-11-17T10:14:42.987Z,24.20
2017-11-17T10:17:14.077Z,21.45
2017-11-17T10:19:44.984Z,20.80
2017-11-17T10:22:15.802Z,22.50
2017-11-17T10:24:47.195Z,24.33
2017-11-17T10:27:19.053Z,19.87
2017-11-17T10:29:50.458Z,21.42
2017-11-17T10:32:22.396Z,21.08
2017-11-17T10:34:54.032Z,19.37
2017-11-17T10:37:24.902Z,20.73
2017-11-17T10:39:56.570Z,23.40
2017-11-17T10:42:27.957Z,20.20
2017-11-17T10:44:58.803Z,22.23
2017-11-17T10:47:29.782Z,23.70
2017-11-17T10:50:00.753Z,23.00
2017-11-17T10:52:31.707Z,21.50
2017-11-17T10:55:04.099Z,21.62
2017-11-17T10:57:35.187Z,20.85
2017-11-17T11:00:06.917Z,22.83
2017-11-17T11:02:37.948Z,22.45
2017-11-17T11:05:09.426Z,22.00
2017-11-17T11:07:40.609Z,21.90
2017-11-17T11:10:11.409Z,20.92
2017-11-17T11:12:51.128Z,19.48
2017-11-17T11:15:22.224Z,20.48
2017-11-17T11:17:54.259Z,22.43
2017-11-17T11:20:25.150Z,25.42
2017-11-17T11:22:56.048Z,29.25
2017-11-17T11:25:27.261Z,25.10
2017-11-17T11:27:58.238Z,26.08
2017-11-17T11:30:30.506Z,25.33
2017-11-17T11:33:01.594Z,26.00
2017-11-17T11:35:32.394Z,28.77
2017-11-17T11:38:03.408Z,27.73
2017-11-17T11:40:35.079Z,24.67
2017-11-17T11:43:06.203Z,29.83
2017-11-17T11:45:38.831Z,24.00
2017-11-17T11:48:10.830Z,25.48
2017-11-17T11:50:42.093Z,29.40
2017-11-17T11:53:12.858Z,26.90
2017-11-17T11:55:45.648Z,29.15
2017-11-17T11:58:16.700Z,27.65
2017-11-17T12:00:47.956Z,24.87
2017-11-17T12:03:19.011Z,29.35
2017-11-17T12:05:50.677Z,24.93
2017-11-17T12:08:21.788Z,24.20
2017-11-17T12:10:53.452Z,25.70
2017-11-17T12:13:25.153Z,26.73
2017-11-17T12:15:56.184Z,26.50
2017-11-17T12:18:27.176Z,28.97
2017-11-17T12:20:58.206Z,25.52
2017-11-17T12:23:29.311Z,26.95
2017-11-17T12:26:00.761Z,23.60
2017-11-17T12:28:32.925Z,25.37
2017-11-17T12:31:04.647Z,24.77
2017-11-17T12:33:35.464Z,25.23
2017-11-17T12:36:07.487Z,26.50
2017-11-17T12:38:38.341Z,27.48
2017-11-17T12:41:09.371Z,25.58
2017-11-17T12:43:42.812Z,29.43
2017-11-17T12:46:13.952Z,24.23
2017-11-17T12:48:45.126Z,29.25
2017-11-17T12:51:16.205Z,26.02
2017-11-17T12:53:47.126Z,26.62
2017-11-17T12:56:18.290Z,30.33
2017-11-17T12:58:49.382Z,28.83
2017-11-17T13:01:20.407Z,26.98
2017-11-17T13:03:51.118Z,27.98
2017-11-17T13:06:21.922Z,34.80
2017-11-17T13:08:52.721Z,28.33
2017-11-17T13:11:23.359Z,35.67
2017-11-17T13:13:54.178Z,32.10
2017-11-17T13:16:25.587Z,30.25
2017-11-17T13:18:56.469Z,32.78
2017-11-17T13:21:27.790Z,30.43
2017-11-17T13:23:58.950Z,31.73
2017-11-17T13:26:30.798Z,29.63
2017-11-17T13:29:02.859Z,31.65
2017-11-17T13:31:34.457Z,30.63
2017-11-17T13:34:05.426Z,33.50
2017-11-17T13:36:37.173Z,29.33
2017-11-17T13:39:08.065Z,34.97
2017-11-17T13:41:38.864Z,33.23
2017-11-17T13:44:09.789Z,36.95
2017-11-17T13:46:40.760Z,32.45
2017-11-17T13:49:12.078Z,39.00
2017-11-17T13:51:42.911Z,38.83
2017-11-17T13:54:13.906Z,39.77
2017-11-17T13:56:45.573Z,39.53
2017-11-17T13:59:16.616Z,46.90
2017-11-17T14:01:47.962Z,40.80
2017-11-17T14:04:19.091Z,42.33
2017-11-17T14:06:49.979Z,43.60
2017-11-17T14:09:20.928Z,38.55
2017-11-17T14:11:51.679Z,44.10
2017-11-17T14:14:23.307Z,42.58
2017-11-17T14:16:54.340Z,43.70
2017-11-17T14:19:25.028Z,42.50
2017-11-17T14:21:56.596Z,41.77
2017-11-17T14:24:27.400Z,42.45
2017-11-17T14:26:58.751Z,44.90
2017-11-17T14:29:30.116Z,42.40
2017-11-17T14:32:01.200Z,45.10
2017-11-17T14:34:32.116Z,45.70
2017-11-17T14:37:03.458Z,42.47
2017-11-17T14:39:34.268Z,41.88
2017-11-17T14:42:05.260Z,43.55
2017-11-17T14:44:35.972Z,41.25
2017-11-17T14:47:06.841Z,42.97
2017-11-17T14:49:37.963Z,42.40
2017-11-17T14:52:08.940Z,41.28
2017-11-17T14:54:40.710Z,42.40
2017-11-17T14:57:12.896Z,42.70
2017-11-17T14:59:44.525Z,40.05
2017-11-17T15:02:15.531Z,40.85
2017-11-17T15:04:46.716Z,40.15
2017-11-17T15:07:17.745Z,42.78
2017-11-17T15:09:49.899Z,41.17
2017-11-17T15:12:21.088Z,43.13
2017-11-17T15:14:52.837Z,44.53
2017-11-17T15:17:24.232Z,44.78
2017-11-17T15:19:56.420Z,46.20
2017-11-17T15:22:27.439Z,46.65
2017-11-17T15:24:58.205Z,47.70
2017-11-17T15:27:31.350Z,43.90
2017-11-17T15:30:03.944Z,44.83
2017-11-17T15:32:36.864Z,42.50
2017-11-17T15:35:07.970Z,43.67
2017-11-17T15:37:38.674Z,47.72
2017-11-17T15:40:09.810Z,49.25
2017-11-17T15:42:42.418Z,48.92
2017-11-17T15:45:13.533Z,48.10
2017-11-17T15:47:44.407Z,47.72
2017-11-17T15:50:15.403Z,47.15
2017-11-17T15:52:46.155Z,50.85
2017-11-17T15:55:17.880Z,50.20
2017-11-17T15:57:49.740Z,52.00
2017-11-17T16:00:20.885Z,45.70
2017-11-17T16:02:51.877Z,50.93
2017-11-17T16:05:23.115Z,52.15
2017-11-17T16:07:55.289Z,55.17
2017-11-17T16:10:27.335Z,50.43
2017-11-17T16:12:58.444Z,48.55
2017-11-17T16:15:30.397Z,48.72
2017-11-17T16:18:02.826Z,49.83
2017-11-17T16:20:34.486Z,50.30
2017-11-17T16:23:05.721Z,47.30
2017-11-17T16:25:36.891Z,54.03
2017-11-17T16:28:08.462Z,53.00
2017-11-17T16:30:39.471Z,47.67
2017-11-17T16:33:10.492Z,51.28
2017-11-17T16:35:41.556Z,48.38
2017-11-17T16:38:13.603Z,46.47
2017-11-17T16:40:45.060Z,52.97
2017-11-17T16:43:18.128Z,48.78
2017-11-17T16:45:50.293Z,48.92
2017-11-17T16:48:21.293Z,41.22
2017-11-17T16:50:52.107Z,45.25
2017-11-17T16:53:23.880Z,47.22
2017-11-17T16:55:56.541Z,46.33
2017-11-17T16:58:27.984Z,42.75
2017-11-17T17:00:58.890Z,50.33
2017-11-17T17:03:29.785Z,46.33
2017-11-17T17:06:00.847Z,48.03
2017-11-17T17:08:32.213Z,43.47
2017-11-17T17:11:03.318Z,43.08
2017-11-17T17:13:34.450Z,47.38
2017-11-17T17:16:06.126Z,48.30
2017-11-17T17:18:37.050Z,50.30
2017-11-17T17:21:08.464Z,46.70
2017-11-17T17:23:39.523Z,50.65
2017-11-17T17:26:10.380Z,45.47
2017-11-17T17:28:41.545Z,47.72
2017-11-17T17:31:12.559Z,48.17
2017-11-17T17:33:43.730Z,51.37
2017-11-17T17:36:14.716Z,45.40
2017-11-17T17:38:45.746Z,40.90
2017-11-17T17:41:16.647Z,41.35
2017-11-17T17:43:48.356Z,45.38
2017-11-17T17:46:19.671Z,43.72
2017-11-17T17:48:50.742Z,50.53
2017-11-17T17:51:21.760Z,46.47
2017-11-17T17:53:52.906Z,48.00
2017-11-17T17:56:23.962Z,47.80
2017-11-17T17:58:55.516Z,47.55
2017-11-17T18:01:26.828Z,49.60
2017-11-17T18:03:58.468Z,49.83
2017-11-17T18:06:31.062Z,50.83
2017-11-17T18:09:02.446Z,52.90
2017-11-17T18:11:33.490Z,48.95
2017-11-17T18:14:08.929Z,47.85
2017-11-17T18:16:40.084Z,48.05
2017-11-17T18:19:11.083Z,49.53
2017-11-17T18:21:41.899Z,46.83
2017-11-17T18:24:14.087Z,46.40
2017-11-17T18:26:45.139Z,45.55
2017-11-17T18:29:16.186Z,46.90
2017-11-17T18:31:47.629Z,48.07
2017-11-17T18:34:18.692Z,46.20
2017-11-17T18:36:49.772Z,49.50
2017-11-17T18:39:20.707Z,51.70
2017-11-17T18:41:51.703Z,49.47
2017-11-17T18:44:22.741Z,46.10
2017-11-17T18:46:53.683Z,50.70
2017-11-17T18:49:25.457Z,52.55
2017-11-17T18:51:56.209Z,52.60
2017-11-17T18:54:27.437Z,55.30
2017-11-17T18:56:58.304Z,50.42
2017-11-17T18:59:29.277Z,47.30
2017-11-17T19:02:00.282Z,53.80
2017-11-17T19:04:32.262Z,52.23
2017-11-17T19:07:03.682Z,46.60
2017-11-17T19:09:34.828Z,47.47
2017-11-17T19:12:06.657Z,50.33
2017-11-17T19:14:39.374Z,44.73
2017-11-17T19:17:10.538Z,48.38
2017-11-17T19:19:42.678Z,47.67
2017-11-17T19:22:14.461Z,52.65
2017-11-17T19:24:46.252Z,48.72
2017-11-17T19:27:18.205Z,52.38
2017-11-17T19:29:50.011Z,50.83
2017-11-17T19:32:21.076Z,50.33
2017-11-17T19:34:52.119Z,51.10
2017-11-17T19:37:23.889Z,49.92
2017-11-17T19:39:56.403Z,50.20
2017-11-17T19:42:27.575Z,56.00
2017-11-17T19:45:00.409Z,53.00
2017-11-17T19:47:32.398Z,53.97
2017-11-17T19:50:04.197Z,53.03
2017-11-17T19:52:37.124Z,50.80
2017-11-17T19:55:09.176Z,53.40
2017-11-17T19:57:41.154Z,58.25
2017-11-17T20:00:13.527Z,47.75
2017-11-17T20:02:46.603Z,50.22
2017-11-17T20:05:18.505Z,53.87
2017-11-17T20:07:51.458Z,61.72
2017-11-17T20:10:22.496Z,57.77
2017-11-17T20:12:54.895Z,57.22
2017-11-17T20:15:27.655Z,56.58
2017-11-17T20:17:58.938Z,54.03
2017-11-17T20:20:30.910Z,50.90
2017-11-17T20:23:02.849Z,57.65
2017-11-17T20:25:35.027Z,70.15
2017-11-17T20:28:06.262Z,52.92
2017-11-17T20:30:38.027Z,52.15
2017-11-17T20:33:11.983Z,51.92
2017-11-17T20:35:44.748Z,50.00
2017-11-17T20:38:16.004Z,55.45
2017-11-17T20:40:53.541Z,49.72
2017-11-17T20:43:25.095Z,47.28
2017-11-17T20:45:57.463Z,50.72
2017-11-17T20:48:28.380Z,49.70
2017-11-17T20:51:01.426Z,66.82
2017-11-17T20:53:32.622Z,47.10
2017-11-17T20:56:04.082Z,47.10
2017-11-17T20:58:35.721Z,58.00
2017-11-17T21:01:07.213Z,50.05
2017-11-17T21:03:38.465Z,49.28
2017-11-17T21:06:10.648Z,63.15
2017-11-17T21:08:44.361Z,54.17
2017-11-17T21:11:15.760Z,62.40
2017-11-17T21:13:47.752Z,60.55
2017-11-17T21:16:20.533Z,52.92
2017-11-17T21:18:51.730Z,52.13
2017-11-17T21:21:24.749Z,46.72
2017-11-17T21:23:56.843Z,46.28
2017-11-17T21:26:28.438Z,51.28
2017-11-17T21:29:01.689Z,47.30
2017-11-17T21:31:35.692Z,41.58
2017-11-17T21:34:08.110Z,44.28
2017-11-17T21:36:41.948Z,46.08
2017-11-17T21:39:15.306Z,43.03
2017-11-17T21:41:47.999Z,41.33
2017-11-17T21:44:20.336Z,44.05
2017-11-17T21:46:54.251Z,47.67
2017-11-17T21:49:25.900Z,44.37
2017-11-17T21:51:57.205Z,42.50
2017-11-17T21:54:28.298Z,43.70
2017-11-17T21:57:03.482Z,44.40
2017-11-17T21:59:34.314Z,44.70
2017-11-17T22:02:06.885Z,42.83
2017-11-17T22:04:37.796Z,40.60
2017-11-17T22:07:09.108Z,41.08
2017-11-17T22:09:40.026Z,45.12
2017-11-17T22:12:11.205Z,40.10
2017-11-17T22:14:43.179Z,45.53
2017-11-17T22:17:14.166Z,42.70
2017-11-17T22:19:45.191Z,46.55
2017-11-17T22:22:16.486Z,43.92
2017-11-17T22:24:47.527Z,45.20
2017-11-17T22:27:18.366Z,51.65
2017-11-17T22:29:49.233Z,50.55
2017-11-17T22:32:20.738Z,50.70
2017-11-17T22:34:51.758Z,56.60
2017-11-17T22:37:23.739Z,54.42
2017-11-17T22:39:55.224Z,53.97
2017-11-17T22:42:26.677Z,51.37
2017-11-17T22:44:58.499Z,56.85
2017-11-17T22:47:29.516Z,48.92
2017-11-17T22:50:00.531Z,49.33
2017-11-17T22:52:32.412Z,55.93
2017-11-17T22:55:04.112Z,51.75
2017-11-17T22:57:34.913Z,52.65
2017-11-17T23:00:05.912Z,49.15
2017-11-17T23:02:36.940Z,48.78
2017-11-17T23:05:08.136Z,47.20
2017-11-17T23:07:39.240Z,51.53
2017-11-17T23:10:10.264Z,49.50
2017-11-17T23:12:42.136Z,50.42
2017-11-17T23:15:13.963Z,53.03
2017-11-17T23:17:45.029Z,50.53
2017-11-17T23:20:16.860Z,51.40
2017-11-17T23:22:47.810Z,52.63
2017-11-17T23:25:18.621Z,50.50
2017-11-17T23:27:49.765Z,46.85
2017-11-17T23:30:20.622Z,45.00
2017-11-17T23:32:51.935Z,40.58
2017-11-17T23:35:23.516Z,44.58
2017-11-17T23:37:54.736Z,40.97
2017-11-17T23:40:26.256Z,41.72
2017-11-17T23:42:58.763Z,42.72
2017-11-17T23:45:29.751Z,41.35
2017-11-17T23:48:02.032Z,42.58
2017-11-17T23:50:33.835Z,47.17
2017-11-17T23:53:05.422Z,43.15
2017-11-17T23:55:36.684Z,43.92
2017-11-17T23:58:08.466Z,41.72
